createdAt,value
2023-01-08T00:01:14.183Z,100236.41
2023-01-08T00:03:41.173Z,100231.16
2023-01-08T00:06:12.887Z,100224.91
2023-01-08T00:08:39.600Z,100224.97
2023-01-08T00:11:06.232Z,100211.06
2023-01-08T00:13:32.896Z,100215.22
2023-01-08T00:16:09.352Z,100212.66
2023-01-08T00:18:36.062Z,100199.50
2023-01-08T00:21:03.239Z,100198.56
2023-01-08T00:23:30.227Z,100207.31
2023-01-08T00:25:56.812Z,100195.97
2023-01-08T00:28:23.478Z,100197.78
2023-01-08T00:30:50.166Z,100196.94
2023-01-08T00:33:16.957Z,100190.72
2023-01-08T00:35:43.556Z,100196.97
2023-01-08T00:38:19.660Z,100185.59
2023-01-08T00:40:49.428Z,100175.88
2023-01-08T00:43:18.061Z,100177.72
2023-01-08T00:45:49.119Z,100176.78
2023-01-08T00:48:19.297Z,100182.97
2023-01-08T00:53:33.874Z,100167.28
2023-01-08T00:56:03.454Z,100159.53
2023-01-08T00:58:31.639Z,100155.28
2023-01-08T01:00:59.814Z,100156.22
2023-01-08T01:03:29.666Z,100142.50
2023-01-08T01:06:04.676Z,100146.84
2023-01-08T01:08:32.400Z,100145.94
2023-01-08T01:11:04.241Z,100153.06
2023-01-08T01:13:34.275Z,100149.66
2023-01-08T01:16:02.656Z,100154.06
2023-01-08T01:18:36.020Z,100142.75
2023-01-08T01:21:06.338Z,100140.16
2023-01-08T01:23:36.666Z,100131.63
2023-01-08T01:26:17.523Z,100139.38
2023-01-08T01:28:47.549Z,100140.41
2023-01-08T01:31:22.249Z,100144.75
2023-01-08T01:33:54.429Z,100138.59
2023-01-08T01:36:29.784Z,100150.00
2023-01-08T01:39:03.209Z,100148.25
2023-01-08T01:41:30.188Z,100138.72
2023-01-08T01:44:42.714Z,100139.53
2023-01-08T01:47:33.264Z,100115.16
2023-01-08T01:50:25.304Z,100109.03
2023-01-08T01:53:11.831Z,100116.00
2023-01-08T01:55:41.791Z,100110.78
2023-01-08T01:58:33.559Z,100110.78
2023-01-08T02:01:07.521Z,100105.53
2023-01-08T02:03:38.897Z,100107.34
2023-01-08T02:06:32.098Z,100110.88
2023-01-08T02:09:39.535Z,100112.63
2023-01-08T02:12:17.605Z,100111.03
2023-01-08T02:14:54.209Z,100120.63
2023-01-08T02:17:34.584Z,100116.28
2023-01-08T02:20:18.922Z,100107.63
2023-01-08T02:22:56.536Z,100117.25
2023-01-08T02:26:04.918Z,100107.75
2023-01-08T02:28:38.219Z,100102.56
2023-01-08T02:31:09.333Z,100096.56
2023-01-08T02:33:40.786Z,100090.47
2023-01-08T02:36:33.025Z,100087.03
2023-01-08T02:39:35.912Z,100075.75
2023-01-08T02:42:31.354Z,100059.16
2023-01-08T02:45:06.264Z,100043.38
2023-01-08T02:47:43.880Z,100051.31
2023-01-08T02:50:27.110Z,100042.69
2023-01-08T02:53:12.692Z,100040.13
2023-01-08T02:55:41.968Z,100048.88
2023-01-08T02:58:09.172Z,100054.19
2023-01-08T03:00:36.197Z,100051.56
2023-01-08T03:03:10.796Z,100048.09
2023-01-08T03:05:38.248Z,100065.56
2023-01-08T03:08:05.215Z,100061.25
2023-01-08T03:10:33.240Z,100059.56
2023-01-08T03:13:02.940Z,100071.81
2023-01-08T03:15:38.224Z,100053.44
2023-01-08T03:18:08.783Z,100044.78
2023-01-08T03:20:37.080Z,100041.25
2023-01-08T03:23:07.207Z,100038.69
2023-01-08T03:25:35.239Z,100024.78
2023-01-08T03:28:05.505Z,100039.63
2023-01-08T03:30:32.530Z,100022.22
2023-01-08T03:33:00.221Z,100015.22
2023-01-08T03:35:27.997Z,100006.47
2023-01-08T03:37:59.476Z,100002.09
2023-01-08T03:40:30.621Z,100009.16
2023-01-08T03:42:57.918Z,100017.00
2023-01-08T03:45:25.900Z,100018.81
2023-01-08T03:47:53.524Z,100024.84
2023-01-08T03:50:23.270Z,100017.06
2023-01-08T03:52:49.916Z,100017.91
2023-01-08T03:55:16.811Z,100019.69
2023-01-08T03:57:43.438Z,100017.97
2023-01-08T04:00:10.881Z,100017.09
2023-01-08T04:02:37.708Z,100015.34
2023-01-08T04:05:04.614Z,100018.00
2023-01-08T04:07:31.198Z,100022.31
2023-01-08T04:09:57.782Z,100026.72
2023-01-08T04:12:24.521Z,100028.47
2023-01-08T04:14:51.230Z,100023.25
2023-01-08T04:17:17.830Z,100022.38
2023-01-08T04:19:44.439Z,100023.28
2023-01-08T04:22:11.643Z,100027.59
2023-01-08T04:24:38.271Z,100038.06
2023-01-08T04:27:05.088Z,100023.25
2023-01-08T04:29:31.770Z,100022.38
2023-01-08T04:31:58.363Z,100018.00
2023-01-08T04:34:25.022Z,100018.03
2023-01-08T04:36:51.632Z,100030.25
2023-01-08T04:39:18.230Z,100025.94
2023-01-08T04:41:44.846Z,100038.09
2023-01-08T04:44:11.467Z,100030.25
2023-01-08T04:46:41.038Z,100029.41
2023-01-08T04:49:07.680Z,100029.41
2023-01-08T04:51:34.318Z,100032.03
2023-01-08T04:54:00.973Z,100036.38
2023-01-08T04:56:27.691Z,100023.28
2023-01-08T04:58:54.332Z,100014.63
2023-01-08T05:01:26.224Z,100007.66
2023-01-08T05:03:54.941Z,99996.34
2023-01-08T05:06:21.719Z,99985.06
2023-01-08T05:08:48.318Z,99986.81
2023-01-08T05:11:14.907Z,99984.19
2023-01-08T05:13:41.516Z,99971.13
2023-01-08T05:16:08.201Z,99977.22
2023-01-08T05:18:35.069Z,99968.50
2023-01-08T05:21:02.799Z,99973.72
2023-01-08T05:23:30.497Z,99978.94
2023-01-08T05:25:58.867Z,99985.06
2023-01-08T05:28:26.834Z,99991.16
2023-01-08T05:30:53.832Z,99985.06
2023-01-08T05:33:20.796Z,99980.72
2023-01-08T05:35:47.442Z,99973.72
2023-01-08T05:38:14.063Z,99968.53
2023-01-08T05:40:40.697Z,99951.97
2023-01-08T05:43:07.332Z,99961.56
2023-01-08T05:45:33.956Z,99969.41
2023-01-08T05:48:00.665Z,99967.63
2023-01-08T05:50:29.123Z,99958.94
2023-01-08T05:52:55.821Z,99956.31
2023-01-08T05:55:22.410Z,99940.66
2023-01-08T05:57:50.111Z,99945.00
2023-01-08T06:00:16.952Z,99938.84
2023-01-08T06:02:47.968Z,99937.13
2023-01-08T06:05:15.258Z,99928.44
2023-01-08T06:07:41.934Z,99936.25
2023-01-08T06:10:08.938Z,99931.06
2023-01-08T06:12:35.530Z,99934.53
2023-01-08T06:15:02.280Z,99933.66
2023-01-08T06:17:28.899Z,99929.28
2023-01-08T06:19:55.487Z,99920.63
2023-01-08T06:22:22.088Z,99924.97
2023-01-08T06:24:48.666Z,99927.59
2023-01-08T06:27:15.301Z,99933.66
2023-01-08T06:29:41.884Z,99932.81
2023-01-08T06:32:08.483Z,99939.75
2023-01-08T06:34:35.149Z,99947.59
2023-01-08T06:37:01.824Z,99948.47
2023-01-08T06:39:28.404Z,99944.13
2023-01-08T06:41:55.006Z,99944.09
2023-01-08T06:44:21.678Z,99930.16
2023-01-08T06:46:48.356Z,99931.06
2023-01-08T06:49:15.055Z,99923.22
2023-01-08T06:51:41.852Z,99912.75
2023-01-08T06:54:08.452Z,99909.25
2023-01-08T06:56:45.503Z,99914.47
2023-01-08T06:59:19.194Z,99915.34
2023-01-08T07:01:45.901Z,99923.22
2023-01-08T07:04:12.585Z,99926.66
2023-01-08T07:06:39.267Z,99918.81
2023-01-08T07:09:06.028Z,99929.25
2023-01-08T07:11:33.596Z,99920.53
2023-01-08T07:14:00.282Z,99914.41
2023-01-08T07:16:27.049Z,99920.50
2023-01-08T07:18:53.719Z,99918.72
2023-01-08T07:21:22.525Z,99916.97
2023-01-08T07:23:49.805Z,99915.19
2023-01-08T07:26:16.917Z,99912.53
2023-01-08T07:28:43.876Z,99915.97
2023-01-08T07:31:10.627Z,99914.28
2023-01-08T07:33:37.279Z,99913.38
2023-01-08T07:36:05.711Z,99905.56
2023-01-08T07:38:32.368Z,99912.44
2023-01-08T07:40:59.160Z,99900.22
2023-01-08T07:43:26.431Z,99904.59
2023-01-08T07:45:56.119Z,99899.31
2023-01-08T07:48:22.706Z,99908.94
2023-01-08T07:50:49.442Z,99902.72
2023-01-08T07:53:17.822Z,99894.88
2023-01-08T07:55:44.942Z,99894.88
2023-01-08T07:58:13.298Z,99895.75
2023-01-08T08:00:40.310Z,99892.19
2023-01-08T08:03:09.342Z,99894.84
2023-01-08T08:05:36.406Z,99891.31
2023-01-08T08:08:08.445Z,99901.72
2023-01-08T08:10:37.607Z,99895.63
2023-01-08T08:13:04.363Z,99900.84
2023-01-08T08:15:31.204Z,99892.94
2023-01-08T08:17:57.831Z,99901.59
2023-01-08T08:20:24.688Z,99899.84
2023-01-08T08:22:51.381Z,99899.78
2023-01-08T08:25:18.435Z,99905.88
2023-01-08T08:27:45.265Z,99908.44
2023-01-08T08:30:16.447Z,99910.16
2023-01-08T08:32:43.062Z,99907.56
2023-01-08T08:35:09.920Z,99905.72
2023-01-08T08:37:36.627Z,99900.47
2023-01-08T08:40:03.525Z,99898.72
2023-01-08T08:42:30.179Z,99902.22
2023-01-08T08:44:56.776Z,99894.25
2023-01-08T08:47:23.431Z,99895.09
2023-01-08T08:49:50.056Z,99886.34
2023-01-08T08:52:16.848Z,99882.88
2023-01-08T08:54:43.511Z,99881.91
2023-01-08T08:57:10.567Z,99884.50
2023-01-08T08:59:37.234Z,99882.78
2023-01-08T09:02:04.162Z,99882.78
2023-01-08T09:04:32.021Z,99886.22
2023-01-08T09:06:59.317Z,99882.69
2023-01-08T09:09:26.538Z,99876.53
2023-01-08T09:11:53.859Z,99874.75
2023-01-08T09:14:20.865Z,99880.00
2023-01-08T09:16:47.611Z,99870.25
2023-01-08T09:19:14.222Z,99872.00
2023-01-08T09:21:40.904Z,99871.09
2023-01-08T09:24:07.962Z,99869.31
2023-01-08T09:26:34.693Z,99858.84
2023-01-08T09:29:01.458Z,99865.81
2023-01-08T09:31:28.276Z,99865.72
2023-01-08T09:33:54.886Z,99867.44
2023-01-08T09:36:21.463Z,99869.09
2023-01-08T09:38:48.143Z,99873.47
2023-01-08T09:41:28.228Z,99866.47
2023-01-08T09:43:56.187Z,99870.81
2023-01-08T09:46:26.508Z,99874.31
2023-01-08T09:48:53.845Z,99882.84
2023-01-08T09:51:20.942Z,99876.75
2023-01-08T09:53:55.829Z,99877.63
2023-01-08T09:56:22.530Z,99881.97
2023-01-08T09:58:50.773Z,99853.06
2023-01-08T10:01:30.005Z,99848.00
2023-01-08T10:04:18.384Z,99838.38
2023-01-08T10:06:49.098Z,99837.41
2023-01-08T10:09:15.765Z,99839.25
2023-01-08T10:11:44.953Z,99841.88
2023-01-08T10:14:26.110Z,99851.41
2023-01-08T10:17:02.821Z,99853.19
2023-01-08T10:19:29.483Z,99853.13
2023-01-08T10:21:57.243Z,99850.47
2023-01-08T10:24:39.467Z,99847.72
2023-01-08T10:27:27.446Z,99844.25
2023-01-08T10:30:05.492Z,99830.28
2023-01-08T10:32:34.636Z,99838.13
2023-01-08T10:35:06.493Z,99835.50
2023-01-08T10:37:39.246Z,99835.53
2023-01-08T10:40:27.492Z,99829.38
2023-01-08T10:42:55.215Z,99832.03
2023-01-08T10:45:23.532Z,99835.50
2023-01-08T10:47:58.112Z,99831.94
2023-01-08T10:50:30.345Z,99829.19
2023-01-08T10:53:02.074Z,99823.94
2023-01-08T10:55:36.180Z,99833.53
2023-01-08T11:00:54.775Z,99822.84
2023-01-08T11:03:29.400Z,99812.31
2023-01-08T11:05:56.079Z,99812.41
2023-01-08T11:08:23.437Z,99809.00
2023-01-08T11:11:01.204Z,99801.88
2023-01-08T11:13:28.660Z,99799.16
2023-01-08T11:16:05.789Z,99796.44
2023-01-08T11:18:42.535Z,99798.19
2023-01-08T11:21:10.895Z,99797.41
2023-01-08T11:23:37.603Z,99790.38
2023-01-08T11:26:08.751Z,99798.16
2023-01-08T11:29:12.949Z,99791.16
2023-01-08T11:32:15.072Z,99782.38
2023-01-08T11:34:53.792Z,99786.50
2023-01-08T11:37:24.762Z,99777.84
2023-01-08T11:39:55.276Z,99778.56
2023-01-08T11:42:46.218Z,99776.78
2023-01-08T11:45:32.121Z,99764.53
2023-01-08T11:48:14.670Z,99758.34
2023-01-08T11:50:54.161Z,99744.16
2023-01-08T11:53:47.113Z,99730.03
2023-01-08T11:56:36.336Z,99729.84
2023-01-08T11:59:20.617Z,99735.81
2023-01-08T12:02:32.138Z,99742.78
2023-01-08T12:05:58.332Z,99727.78
2023-01-08T12:09:00.096Z,99719.84
2023-01-08T12:12:02.468Z,99731.31
2023-01-08T12:15:10.880Z,99735.63
2023-01-08T12:18:02.597Z,99721.66
2023-01-08T12:20:40.410Z,99721.63
2023-01-08T12:23:39.835Z,99714.56
2023-01-08T12:26:24.653Z,99722.56
2023-01-08T12:29:13.547Z,99712.09
2023-01-08T12:32:12.886Z,99715.63
2023-01-08T12:35:06.138Z,99705.22
2023-01-08T12:38:00.255Z,99703.41
2023-01-08T12:40:35.937Z,99702.53
2023-01-08T12:43:07.901Z,99696.34
2023-01-08T12:45:47.125Z,99695.34
2023-01-08T12:48:25.381Z,99694.34
2023-01-08T12:51:18.171Z,99695.06
2023-01-08T12:53:50.115Z,99701.13
2023-01-08T12:56:23.748Z,99693.13
2023-01-08T12:59:17.273Z,99697.47
2023-01-08T13:01:50.145Z,99688.03
2023-01-08T13:04:17.035Z,99698.47
2023-01-08T13:06:52.088Z,99684.41
2023-01-08T13:09:24.738Z,99676.38
2023-01-08T13:11:53.026Z,99674.78
2023-01-08T13:14:19.945Z,99681.75
2023-01-08T13:16:47.562Z,99681.53
2023-01-08T13:19:25.466Z,99676.31
2023-01-08T13:21:54.520Z,99673.47
2023-01-08T13:24:26.817Z,99675.47
2023-01-08T13:26:54.101Z,99676.28
2023-01-08T13:29:38.287Z,99680.72
2023-01-08T13:32:23.569Z,99680.47
2023-01-08T13:35:16.464Z,99674.59
2023-01-08T13:38:09.357Z,99678.91
2023-01-08T13:40:37.101Z,99678.09
2023-01-08T13:43:06.242Z,99679.75
2023-01-08T13:45:34.284Z,99676.38
2023-01-08T13:48:01.663Z,99671.13
2023-01-08T13:50:30.582Z,99676.28
2023-01-08T13:52:58.989Z,99664.66
2023-01-08T13:55:29.861Z,99668.41
2023-01-08T13:57:59.061Z,99671.72
2023-01-08T14:00:47.079Z,99663.97
2023-01-08T14:03:27.108Z,99654.34
2023-01-08T14:06:27.297Z,99659.69
2023-01-08T14:08:56.907Z,99657.81
2023-01-08T14:11:27.374Z,99664.06
2023-01-08T14:13:54.211Z,99649.97
2023-01-08T14:16:40.433Z,99651.78
2023-01-08T14:19:08.072Z,99649.44
2023-01-08T14:21:37.536Z,99645.88
2023-01-08T14:24:04.779Z,99646.91
2023-01-08T14:26:36.383Z,99652.03
2023-01-08T14:29:04.888Z,99652.16
2023-01-08T14:31:31.573Z,99654.00
2023-01-08T14:33:59.206Z,99654.09
2023-01-08T14:36:26.150Z,99660.22
2023-01-08T14:38:52.933Z,99656.63
2023-01-08T14:41:53.120Z,99650.56
2023-01-08T14:44:29.162Z,99640.09
2023-01-08T14:47:03.342Z,99641.91
2023-01-08T14:49:32.372Z,99652.44
2023-01-08T14:52:00.260Z,99645.50
2023-01-08T14:54:33.165Z,99646.41
2023-01-08T14:57:01.038Z,99637.75
2023-01-08T14:59:30.658Z,99642.94
2023-01-08T15:02:00.083Z,99639.41
2023-01-08T15:04:28.474Z,99636.06
2023-01-08T15:07:24.468Z,99645.75
2023-01-08T15:10:01.190Z,99650.19
2023-01-08T15:12:32.388Z,99657.28
2023-01-08T15:15:12.603Z,99657.22
2023-01-08T15:17:39.762Z,99649.25
2023-01-08T15:20:07.165Z,99638.72
2023-01-08T15:22:36.308Z,99642.97
2023-01-08T15:25:05.902Z,99640.50
2023-01-08T15:27:34.389Z,99641.50
2023-01-08T15:30:03.455Z,99645.72
2023-01-08T15:32:32.547Z,99638.06
2023-01-08T15:34:59.745Z,99632.84
2023-01-08T15:37:27.055Z,99624.72
2023-01-08T15:39:53.765Z,99629.28
2023-01-08T15:42:46.141Z,99630.94
2023-01-08T15:45:20.741Z,99625.78
2023-01-08T15:47:47.498Z,99625.91
2023-01-08T15:50:17.329Z,99626.66
2023-01-08T15:52:44.226Z,99624.97
2023-01-08T15:55:17.390Z,99640.72
2023-01-08T15:57:47.517Z,99626.13
2023-01-08T16:00:15.745Z,99624.06
2023-01-08T16:02:49.236Z,99630.34
2023-01-08T16:05:21.206Z,99633.75
2023-01-08T16:07:48.006Z,99639.81
2023-01-08T16:10:16.027Z,99634.69
2023-01-08T16:12:43.687Z,99636.53
2023-01-08T16:15:11.496Z,99640.22
2023-01-08T16:17:38.577Z,99644.47
2023-01-08T16:20:08.251Z,99649.56
2023-01-08T16:22:34.931Z,99651.50
2023-01-08T16:25:01.634Z,99655.91
2023-01-08T16:27:29.939Z,99645.66
2023-01-08T16:29:56.571Z,99647.34
2023-01-08T16:32:26.021Z,99644.59
2023-01-08T16:34:55.621Z,99645.56
2023-01-08T16:37:22.499Z,99644.81
2023-01-08T16:39:49.175Z,99642.22
2023-01-08T16:42:15.853Z,99633.44
2023-01-08T16:44:42.569Z,99630.94
2023-01-08T16:47:09.220Z,99637.66
2023-01-08T16:49:36.125Z,99638.72
2023-01-08T16:52:03.016Z,99642.06
2023-01-08T16:54:31.172Z,99643.81
2023-01-08T16:56:57.876Z,99632.44
2023-01-08T16:59:25.962Z,99623.78
2023-01-08T17:01:53.090Z,99628.06
2023-01-08T17:04:20.487Z,99626.31
2023-01-08T17:06:47.209Z,99622.00
2023-01-08T17:09:14.709Z,99619.41
2023-01-08T17:11:41.489Z,99615.22
2023-01-08T17:14:08.605Z,99622.25
2023-01-08T17:16:35.285Z,99623.31
2023-01-08T17:19:01.951Z,99612.75
2023-01-08T17:21:28.699Z,99613.63
2023-01-08T17:23:55.578Z,99607.56
2023-01-08T17:26:22.288Z,99603.09
2023-01-08T17:28:48.906Z,99599.75
2023-01-08T17:31:19.442Z,99589.91
2023-01-08T17:33:50.226Z,99591.84
2023-01-08T17:36:18.970Z,99590.16
2023-01-08T17:38:52.255Z,99583.38
2023-01-08T17:41:38.682Z,99587.81
2023-01-08T17:44:09.852Z,99573.88
2023-01-08T17:46:42.278Z,99580.91
2023-01-08T17:49:13.880Z,99574.06
2023-01-08T17:51:41.578Z,99575.94
2023-01-08T17:54:14.319Z,99582.09
2023-01-08T17:56:41.552Z,99568.91
2023-01-08T17:59:08.356Z,99556.78
2023-01-08T18:01:36.690Z,99571.66
2023-01-08T18:04:03.516Z,99571.84
2023-01-08T18:06:30.199Z,99577.94
2023-01-08T18:08:58.358Z,99569.25
2023-01-08T18:11:25.669Z,99567.56
2023-01-08T18:14:00.074Z,99564.91
2023-01-08T18:16:27.253Z,99564.19
2023-01-08T18:18:55.924Z,99559.84
2023-01-08T18:21:22.838Z,99565.06
2023-01-08T18:23:49.417Z,99558.22
2023-01-08T18:26:17.855Z,99564.41
2023-01-08T18:28:44.431Z,99555.66
2023-01-08T18:31:11.812Z,99554.88
2023-01-08T18:33:38.922Z,99560.72
2023-01-08T18:36:09.401Z,99560.75
2023-01-08T18:38:43.650Z,99559.69
2023-01-08T18:41:12.519Z,99558.00
2023-01-08T18:43:42.050Z,99559.75
2023-01-08T18:46:08.677Z,99550.97
2023-01-08T18:48:35.502Z,99555.31
2023-01-08T18:51:05.455Z,99558.63
2023-01-08T18:53:33.369Z,99549.88
2023-01-08T18:56:03.435Z,99546.22
2023-01-08T18:58:30.081Z,99546.31
2023-01-08T19:01:03.223Z,99556.69
2023-01-08T19:03:29.966Z,99550.50
2023-01-08T19:05:56.583Z,99548.63
2023-01-08T19:08:23.310Z,99544.25
2023-01-08T19:10:50.298Z,99542.44
2023-01-08T19:13:16.973Z,99530.13
2023-01-08T19:15:43.621Z,99531.84
2023-01-08T19:18:10.216Z,99536.38
2023-01-08T19:20:41.488Z,99530.94
2023-01-08T19:23:08.082Z,99531.69
2023-01-08T19:25:34.975Z,99535.06
2023-01-08T19:28:01.610Z,99530.78
2023-01-08T19:30:30.594Z,99526.44
2023-01-08T19:32:57.178Z,99529.00
2023-01-08T19:35:23.806Z,99534.25
2023-01-08T19:37:50.464Z,99525.78
2023-01-08T19:40:17.644Z,99537.88
2023-01-08T19:43:03.036Z,99525.59
2023-01-08T19:45:29.725Z,99528.28
2023-01-08T19:47:56.413Z,99528.19
2023-01-08T19:50:23.683Z,99526.41
2023-01-08T19:52:52.830Z,99521.91
2023-01-08T19:55:22.114Z,99528.66
2023-01-08T19:57:49.911Z,99514.03
2023-01-08T20:00:17.302Z,99516.78
2023-01-08T20:02:43.969Z,99511.66
2023-01-08T20:05:10.618Z,99512.44
2023-01-08T20:07:37.231Z,99511.56
2023-01-08T20:10:05.060Z,99516.94
2023-01-08T20:12:31.734Z,99509.81
2023-01-08T20:14:58.377Z,99500.97
2023-01-08T20:17:25.186Z,99501.81
2023-01-08T20:19:52.586Z,99492.44
2023-01-08T20:22:19.454Z,99506.34
2023-01-08T20:24:46.531Z,99491.44
2023-01-08T20:27:13.141Z,99498.41
2023-01-08T20:29:39.710Z,99489.75
2023-01-08T20:32:06.322Z,99488.94
2023-01-08T20:34:33.002Z,99483.66
2023-01-08T20:37:00.069Z,99483.84
2023-01-08T20:39:26.674Z,99483.63
2023-01-08T20:42:03.331Z,99475.91
2023-01-08T20:44:31.288Z,99474.13
2023-01-08T20:46:57.895Z,99467.00
2023-01-08T20:49:26.602Z,99473.19
2023-01-08T20:51:59.176Z,99474.31
2023-01-08T20:54:27.001Z,99469.28
2023-01-08T20:56:55.798Z,99467.72
2023-01-08T20:59:24.121Z,99467.53
2023-01-08T21:01:51.002Z,99464.19
2023-01-08T21:04:17.927Z,99463.34
2023-01-08T21:06:44.632Z,99458.31
2023-01-08T21:09:11.854Z,99448.88
2023-01-08T21:11:40.427Z,99447.91
2023-01-08T21:14:08.079Z,99446.34
2023-01-08T21:16:35.621Z,99444.00
2023-01-08T21:19:02.656Z,99430.16
2023-01-08T21:21:32.997Z,99444.19
2023-01-08T21:24:04.095Z,99434.78
2023-01-08T21:26:32.296Z,99437.97
2023-01-08T21:29:02.610Z,99433.78
2023-01-08T21:31:29.909Z,99433.75
2023-01-08T21:33:58.121Z,99434.78
2023-01-08T21:36:27.284Z,99432.97
2023-01-08T21:38:55.430Z,99426.69
2023-01-08T21:42:02.078Z,99434.47
2023-01-08T21:44:47.655Z,99436.19
2023-01-08T21:47:17.054Z,99425.69
2023-01-08T21:49:45.347Z,99425.50
2023-01-08T21:52:30.670Z,99413.31
2023-01-08T21:54:58.232Z,99410.50
2023-01-08T21:57:27.790Z,99408.94
2023-01-08T21:59:55.141Z,99405.50
2023-01-08T22:02:24.139Z,99406.47
2023-01-08T22:04:54.396Z,99407.19
2023-01-08T22:07:21.089Z,99408.00
2023-01-08T22:09:47.832Z,99409.72
2023-01-08T22:12:16.116Z,99411.22
2023-01-08T22:14:43.092Z,99406.91
2023-01-08T22:17:09.808Z,99401.69
2023-01-08T22:19:40.063Z,99405.31
2023-01-08T22:22:10.246Z,99401.00
2023-01-08T22:24:37.465Z,99399.91
2023-01-08T22:27:04.100Z,99387.91
2023-01-08T22:29:31.051Z,99382.41
2023-01-08T22:31:57.734Z,99377.31
2023-01-08T22:34:24.417Z,99368.78
2023-01-08T22:36:52.143Z,99366.16
2023-01-08T22:39:19.815Z,99371.41
2023-01-08T22:41:46.462Z,99374.75
2023-01-08T22:44:13.721Z,99359.09
2023-01-08T22:46:40.497Z,99355.56
2023-01-08T22:49:10.311Z,99354.78
2023-01-08T22:51:36.994Z,99345.38
2023-01-08T22:54:03.720Z,99347.00
2023-01-08T22:56:30.420Z,99341.56
2023-01-08T22:58:57.782Z,99352.28
2023-01-08T23:01:27.249Z,99348.72
2023-01-08T23:03:59.683Z,99341.88
2023-01-08T23:06:29.971Z,99332.28
2023-01-08T23:08:56.659Z,99333.31
2023-01-08T23:11:26.201Z,99342.97
2023-01-08T23:13:55.991Z,99329.00
2023-01-08T23:16:24.994Z,99331.75
2023-01-08T23:18:55.776Z,99331.91
2023-01-08T23:21:26.244Z,99334.34
2023-01-08T23:23:53.077Z,99332.53
2023-01-08T23:26:28.441Z,99335.06
2023-01-08T23:28:56.717Z,99333.41
2023-01-08T23:31:26.999Z,99327.97
2023-01-08T23:33:54.091Z,99326.16
2023-01-08T23:36:21.486Z,99333.19
2023-01-08T23:38:50.509Z,99333.31
2023-01-08T23:41:17.959Z,99332.19
2023-01-08T23:43:46.059Z,99328.94
2023-01-08T23:46:13.370Z,99315.81
2023-01-08T23:48:40.130Z,99309.09
2023-01-08T23:51:07.206Z,99316.09
2023-01-08T23:53:33.912Z,99304.72
2023-01-08T23:56:00.735Z,99303.00
2023-01-08T23:58:27.564Z,99304.06
